Saint-Charles-De-Bellechasse, Canada
Current Conditions -  °F | °C
As of 1:00 PM on Monday 26 Jan 2015 (Local Time) from CYQB Reporting Station
Few Clouds Few Clouds  
Wind Chill: -10°   Ceiling: Unl
Heat Index:   Visibility: 30mi
Dew Point: -8°   Wind: 8mph
Humidity: 61%   Direction: 210°SSW
Pressure: 30.22"   Gusts: NA
Location:  46.77°N, 70.95°W
Report Text: CYQB 261800Z 21007KT 30SM FEW210 M16/M22 A3022 RMK CI1 SLP242
Loading
Personal Weather Stations






























Interactive Weather Map New forecast layout! Learn more

10-Day Weather Forecast

Advertisements
Track Severe Weather on mobile